sensor_id;sensor_type;location;lat;lon;timestamp;P1;durP1;ratioP1;P2;durP2;ratioP2
3299;SDS011;1662;49.310;8.134;2023-03-01T00:02:01;15.23;;;13.07;;
3299;SDS011;1662;49.310;8.134;2023-03-01T00:04:27;14.27;;;12.73;;
3299;SDS011;1662;49.310;8.134;2023-03-01T00:06:53;16.30;;;12.40;;
3299;SDS011;1662;49.310;8.134;2023-03-01T00:09:19;17.50;;;12.63;;
3299;SDS011;1662;49.310;8.134;2023-03-01T00:11:45;18.13;;;12.80;;
3299;SDS011;1662;49.310;8.134;2023-03-01T00:14:11;12.35;;;11.15;;
3299;SDS011;1662;49.310;8.134;2023-03-01T00:16:38;13.85;;;12.43;;
3299;SDS011;1662;49.310;8.134;2023-03-01T00:19:06;13.38;;;11.65;;
3299;SDS011;1662;49.310;8.134;2023-03-01T00:21:37;13.80;;;11.52;;
3299;SDS011;1662;49.310;8.134;2023-03-01T00:24:02;15.37;;;12.33;;
3299;SDS011;1662;49.310;8.134;2023-03-01T00:26:28;13.70;;;11.60;;
3299;SDS011;1662;49.310;8.134;2023-03-01T00:28:54;15.00;;;12.90;;
3299;SDS011;1662;49.310;8.134;2023-03-01T00:31:23;15.55;;;13.50;;
3299;SDS011;1662;49.310;8.134;2023-03-01T00:33:54;17.13;;;13.45;;
3299;SDS011;1662;49.310;8.134;2023-03-01T00:36:22;14.88;;;12.68;;
3299;SDS011;1662;49.310;8.134;2023-03-01T00:38:52;15.95;;;12.50;;
3299;SDS011;1662;49.310;8.134;2023-03-01T00:41:18;17.23;;;12.77;;
3299;SDS011;1662;49.310;8.134;2023-03-01T00:43:44;13.18;;;11.98;;
3299;SDS011;1662;49.310;8.134;2023-03-01T00:46:12;16.83;;;13.60;;
3299;SDS011;1662;49.310;8.134;2023-03-01T00:48:39;15.07;;;13.35;;
3299;SDS011;1662;49.310;8.134;2023-03-01T00:51:06;17.52;;;13.25;;
3299;SDS011;1662;49.310;8.134;2023-03-01T00:53:33;15.70;;;13.93;;
3299;SDS011;1662;49.310;8.134;2023-03-01T00:56:00;15.25;;;12.88;;
3299;SDS011;1662;49.310;8.134;2023-03-01T00:58:25;15.43;;;13.47;;
3299;SDS011;1662;49.310;8.134;2023-03-01T01:00:51;16.03;;;13.70;;
3299;SDS011;1662;49.310;8.134;2023-03-01T01:03:20;14.90;;;13.02;;
3299;SDS011;1662;49.310;8.134;2023-03-01T01:05:46;14.23;;;12.73;;
3299;SDS011;1662;49.310;8.134;2023-03-01T01:08:12;14.93;;;13.33;;
3299;SDS011;1662;49.310;8.134;2023-03-01T01:10:38;14.73;;;13.17;;
3299;SDS011;1662;49.310;8.134;2023-03-01T01:13:04;14.60;;;13.10;;
3299;SDS011;1662;49.310;8.134;2023-03-01T01:15:32;22.43;;;14.63;;
3299;SDS011;1662;49.310;8.134;2023-03-01T01:17:59;21.17;;;14.50;;
3299;SDS011;1662;49.310;8.134;2023-03-01T01:20:25;13.95;;;12.50;;
3299;SDS011;1662;49.310;8.134;2023-03-01T01:22:51;16.97;;;13.50;;
3299;SDS011;1662;49.310;8.134;2023-03-01T01:25:17;15.63;;;13.47;;
3299;SDS011;1662;49.310;8.134;2023-03-01T01:27:43;20.10;;;14.47;;
3299;SDS011;1662;49.310;8.134;2023-03-01T01:30:09;20.13;;;14.20;;
3299;SDS011;1662;49.310;8.134;2023-03-01T01:32:35;15.75;;;13.32;;
3299;SDS011;1662;49.310;8.134;2023-03-01T01:35:00;17.80;;;13.97;;
3299;SDS011;1662;49.310;8.134;2023-03-01T01:37:26;21.33;;;14.07;;
3299;SDS011;1662;49.310;8.134;2023-03-01T01:39:56;19.75;;;14.25;;
3299;SDS011;1662;49.310;8.134;2023-03-01T01:42:26;16.63;;;13.65;;
3299;SDS011;1662;49.310;8.134;2023-03-01T01:47:48;20.98;;;14.38;;
3299;SDS011;1662;49.310;8.134;2023-03-01T01:50:16;18.85;;;13.88;;
3299;SDS011;1662;49.310;8.134;2023-03-01T01:52:43;21.42;;;14.73;;
3299;SDS011;1662;49.310;8.134;2023-03-01T01:55:12;14.60;;;13.05;;
3299;SDS011;1662;49.310;8.134;2023-03-01T01:57:46;17.60;;;13.75;;
3299;SDS011;1662;49.310;8.134;2023-03-01T02:00:23;17.02;;;14.00;;
3299;SDS011;1662;49.310;8.134;2023-03-01T02:02:51;21.73;;;14.68;;
3299;SDS011;1662;49.310;8.134;2023-03-01T02:05:47;18.40;;;13.90;;
3299;SDS011;1662;49.310;8.134;2023-03-01T02:08:21;18.65;;;13.68;;
3299;SDS011;1662;49.310;8.134;2023-03-01T02:10:50;14.55;;;13.13;;
3299;SDS011;1662;49.310;8.134;2023-03-01T02:13:16;19.45;;;14.30;;
3299;SDS011;1662;49.310;8.134;2023-03-01T02:15:42;17.80;;;14.30;;
3299;SDS011;1662;49.310;8.134;2023-03-01T02:18:09;23.70;;;15.75;;
3299;SDS011;1662;49.310;8.134;2023-03-01T02:23:20;17.83;;;13.10;;
3299;SDS011;1662;49.310;8.134;2023-03-01T02:28:33;16.10;;;13.25;;
3299;SDS011;1662;49.310;8.134;2023-03-01T02:31:01;21.40;;;15.38;;
3299;SDS011;1662;49.310;8.134;2023-03-01T02:33:46;21.25;;;15.20;;
3299;SDS011;1662;49.310;8.134;2023-03-01T02:36:17;22.67;;;15.45;;
3299;SDS011;1662;49.310;8.134;2023-03-01T02:38:48;22.75;;;16.52;;
3299;SDS011;1662;49.310;8.134;2023-03-01T02:41:17;18.50;;;15.60;;
3299;SDS011;1662;49.310;8.134;2023-03-01T02:43:45;17.60;;;14.55;;
3299;SDS011;1662;49.310;8.134;2023-03-01T02:46:15;21.03;;;15.00;;
3299;SDS011;1662;49.310;8.134;2023-03-01T02:48:48;20.95;;;15.10;;
3299;SDS011;1662;49.310;8.134;2023-03-01T02:53:55;18.35;;;14.27;;
3299;SDS011;1662;49.310;8.134;2023-03-01T02:56:40;19.75;;;14.20;;
3299;SDS011;1662;49.310;8.134;2023-03-01T02:59:06;19.85;;;13.50;;
3299;SDS011;1662;49.310;8.134;2023-03-01T03:01:32;21.55;;;15.90;;
3299;SDS011;1662;49.310;8.134;2023-03-01T03:04:08;21.83;;;14.82;;
3299;SDS011;1662;49.310;8.134;2023-03-01T03:06:41;19.90;;;14.90;;
3299;SDS011;1662;49.310;8.134;2023-03-01T03:09:08;21.23;;;14.23;;
3299;SDS011;1662;49.310;8.134;2023-03-01T03:11:34;17.17;;;13.87;;
3299;SDS011;1662;49.310;8.134;2023-03-01T03:14:01;19.25;;;13.77;;
3299;SDS011;1662;49.310;8.134;2023-03-01T03:16:27;17.58;;;14.63;;
3299;SDS011;1662;49.310;8.134;2023-03-01T03:18:54;21.02;;;16.80;;
3299;SDS011;1662;49.310;8.134;2023-03-01T03:21:29;24.73;;;15.00;;
3299;SDS011;1662;49.310;8.134;2023-03-01T03:23:58;23.20;;;14.90;;
3299;SDS011;1662;49.310;8.134;2023-03-01T03:26:24;19.13;;;14.20;;
3299;SDS011;1662;49.310;8.134;2023-03-01T03:28:50;25.93;;;17.50;;
3299;SDS011;1662;49.310;8.134;2023-03-01T03:31:15;19.23;;;14.60;;
3299;SDS011;1662;49.310;8.134;2023-03-01T03:33:41;20.80;;;15.20;;
3299;SDS011;1662;49.310;8.134;2023-03-01T03:36:07;24.83;;;15.97;;
3299;SDS011;1662;49.310;8.134;2023-03-01T03:38:37;21.83;;;14.90;;
3299;SDS011;1662;49.310;8.134;2023-03-01T03:41:04;19.98;;;13.93;;
3299;SDS011;1662;49.310;8.134;2023-03-01T03:43:35;17.17;;;13.73;;
3299;SDS011;1662;49.310;8.134;2023-03-01T03:46:02;19.42;;;14.35;;
3299;SDS011;1662;49.310;8.134;2023-03-01T03:48:32;21.10;;;15.25;;
3299;SDS011;1662;49.310;8.134;2023-03-01T03:51:01;20.92;;;15.30;;
3299;SDS011;1662;49.310;8.134;2023-03-01T03:53:30;23.30;;;15.35;;
3299;SDS011;1662;49.310;8.134;2023-03-01T03:55:56;23.23;;;14.48;;
3299;SDS011;1662;49.310;8.134;2023-03-01T03:58:23;26.58;;;16.00;;
3299;SDS011;1662;49.310;8.134;2023-03-01T04:00:51;21.73;;;15.15;;
3299;SDS011;1662;49.310;8.134;2023-03-01T04:03:21;22.55;;;16.30;;
3299;SDS011;1662;49.310;8.134;2023-03-01T04:05:50;19.85;;;14.68;;
3299;SDS011;1662;49.310;8.134;2023-03-01T04:08:20;19.35;;;14.90;;
3299;SDS011;1662;49.310;8.134;2023-03-01T04:10:48;21.63;;;16.00;;
3299;SDS011;1662;49.310;8.134;2023-03-01T04:13:17;24.20;;;16.40;;
3299;SDS011;1662;49.310;8.134;2023-03-01T04:15:47;19.73;;;15.38;;
3299;SDS011;1662;49.310;8.134;2023-03-01T04:18:15;18.83;;;15.30;;
3299;SDS011;1662;49.310;8.134;2023-03-01T04:20:41;21.80;;;15.23;;
3299;SDS011;1662;49.310;8.134;2023-03-01T04:28:05;24.27;;;14.50;;
3299;SDS011;1662;49.310;8.134;2023-03-01T04:30:30;18.00;;;14.50;;
3299;SDS011;1662;49.310;8.134;2023-03-01T04:33:00;21.55;;;15.70;;
3299;SDS011;1662;49.310;8.134;2023-03-01T04:35:27;20.13;;;15.05;;
3299;SDS011;1662;49.310;8.134;2023-03-01T04:37:52;21.27;;;14.50;;
3299;SDS011;1662;49.310;8.134;2023-03-01T04:40:18;17.80;;;14.10;;
3299;SDS011;1662;49.310;8.134;2023-03-01T04:42:44;22.37;;;15.33;;
3299;SDS011;1662;49.310;8.134;2023-03-01T04:45:09;19.60;;;13.70;;
3299;SDS011;1662;49.310;8.134;2023-03-01T04:47:42;18.85;;;14.45;;
3299;SDS011;1662;49.310;8.134;2023-03-01T04:50:11;20.90;;;14.85;;
3299;SDS011;1662;49.310;8.134;2023-03-01T04:52:45;21.33;;;15.73;;
3299;SDS011;1662;49.310;8.134;2023-03-01T04:55:12;22.67;;;14.35;;
3299;SDS011;1662;49.310;8.134;2023-03-01T04:57:38;26.27;;;16.40;;
3299;SDS011;1662;49.310;8.134;2023-03-01T05:00:04;21.65;;;14.15;;
3299;SDS011;1662;49.310;8.134;2023-03-01T05:02:52;20.60;;;14.85;;
3299;SDS011;1662;49.310;8.134;2023-03-01T05:05:26;27.02;;;16.98;;
3299;SDS011;1662;49.310;8.134;2023-03-01T05:07:54;28.73;;;15.27;;
3299;SDS011;1662;49.310;8.134;2023-03-01T05:10:21;23.27;;;14.73;;
3299;SDS011;1662;49.310;8.134;2023-03-01T05:12:48;19.33;;;14.38;;
3299;SDS011;1662;49.310;8.134;2023-03-01T05:15:17;26.67;;;17.60;;
3299;SDS011;1662;49.310;8.134;2023-03-01T05:17:43;23.07;;;15.70;;
3299;SDS011;1662;49.310;8.134;2023-03-01T05:20:09;23.90;;;15.63;;
3299;SDS011;1662;49.310;8.134;2023-03-01T05:22:35;25.02;;;16.30;;
3299;SDS011;1662;49.310;8.134;2023-03-01T05:25:02;20.30;;;14.70;;
3299;SDS011;1662;49.310;8.134;2023-03-01T05:27:30;25.58;;;15.50;;
3299;SDS011;1662;49.310;8.134;2023-03-01T05:29:56;21.43;;;14.83;;
3299;SDS011;1662;49.310;8.134;2023-03-01T05:32:21;24.20;;;16.43;;
3299;SDS011;1662;49.310;8.134;2023-03-01T05:34:49;25.75;;;17.00;;
3299;SDS011;1662;49.310;8.134;2023-03-01T05:37:17;23.98;;;15.43;;
3299;SDS011;1662;49.310;8.134;2023-03-01T05:39:44;22.92;;;17.17;;
3299;SDS011;1662;49.310;8.134;2023-03-01T05:42:16;19.75;;;13.88;;
3299;SDS011;1662;49.310;8.134;2023-03-01T05:44:42;22.87;;;16.40;;
3299;SDS011;1662;49.310;8.134;2023-03-01T05:47:10;23.33;;;16.87;;
3299;SDS011;1662;49.310;8.134;2023-03-01T05:49:35;23.38;;;16.40;;
3299;SDS011;1662;49.310;8.134;2023-03-01T05:52:01;19.03;;;14.50;;
3299;SDS011;1662;49.310;8.134;2023-03-01T05:54:26;23.63;;;16.70;;
3299;SDS011;1662;49.310;8.134;2023-03-01T05:56:52;27.90;;;17.07;;
3299;SDS011;1662;49.310;8.134;2023-03-01T05:59:18;25.37;;;17.73;;
3299;SDS011;1662;49.310;8.134;2023-03-01T06:01:43;24.97;;;16.33;;
3299;SDS011;1662;49.310;8.134;2023-03-01T06:04:09;29.27;;;17.10;;
3299;SDS011;1662;49.310;8.134;2023-03-01T06:06:35;23.67;;;16.30;;
3299;SDS011;1662;49.310;8.134;2023-03-01T06:09:02;31.35;;;17.73;;
3299;SDS011;1662;49.310;8.134;2023-03-01T06:11:28;22.23;;;16.17;;
3299;SDS011;1662;49.310;8.134;2023-03-01T06:13:57;20.35;;;15.07;;
3299;SDS011;1662;49.310;8.134;2023-03-01T06:16:22;25.50;;;17.40;;
3299;SDS011;1662;49.310;8.134;2023-03-01T06:18:48;27.93;;;17.10;;
3299;SDS011;1662;49.310;8.134;2023-03-01T06:21:13;24.00;;;17.30;;
3299;SDS011;1662;49.310;8.134;2023-03-01T06:23:39;23.13;;;16.50;;
3299;SDS011;1662;49.310;8.134;2023-03-01T06:26:05;24.97;;;16.47;;
3299;SDS011;1662;49.310;8.134;2023-03-01T06:28:32;22.75;;;16.33;;
3299;SDS011;1662;49.310;8.134;2023-03-01T06:30:57;27.53;;;18.90;;
3299;SDS011;1662;49.310;8.134;2023-03-01T06:33:23;22.87;;;16.50;;
3299;SDS011;1662;49.310;8.134;2023-03-01T06:35:50;24.67;;;15.93;;
3299;SDS011;1662;49.310;8.134;2023-03-01T06:38:17;29.80;;;17.60;;
3299;SDS011;1662;49.310;8.134;2023-03-01T06:40:44;26.35;;;17.20;;
3299;SDS011;1662;49.310;8.134;2023-03-01T06:43:10;22.33;;;16.05;;
3299;SDS011;1662;49.310;8.134;2023-03-01T06:45:38;26.73;;;16.17;;
3299;SDS011;1662;49.310;8.134;2023-03-01T06:48:04;31.57;;;18.83;;
3299;SDS011;1662;49.310;8.134;2023-03-01T06:50:30;23.73;;;17.10;;
3299;SDS011;1662;49.310;8.134;2023-03-01T06:52:57;21.23;;;14.20;;
3299;SDS011;1662;49.310;8.134;2023-03-01T06:55:22;27.77;;;16.00;;
3299;SDS011;1662;49.310;8.134;2023-03-01T06:57:48;20.90;;;15.50;;
3299;SDS011;1662;49.310;8.134;2023-03-01T07:00:14;29.87;;;18.00;;
3299;SDS011;1662;49.310;8.134;2023-03-01T07:02:40;23.42;;;17.73;;
3299;SDS011;1662;49.310;8.134;2023-03-01T07:05:05;24.13;;;16.43;;
3299;SDS011;1662;49.310;8.134;2023-03-01T07:07:32;25.30;;;17.45;;
3299;SDS011;1662;49.310;8.134;2023-03-01T07:09:57;23.23;;;16.40;;
3299;SDS011;1662;49.310;8.134;2023-03-01T07:12:23;23.80;;;16.43;;
3299;SDS011;1662;49.310;8.134;2023-03-01T07:14:48;25.13;;;16.60;;
3299;SDS011;1662;49.310;8.134;2023-03-01T07:17:14;27.30;;;17.80;;
3299;SDS011;1662;49.310;8.134;2023-03-01T07:19:39;30.40;;;16.10;;
3299;SDS011;1662;49.310;8.134;2023-03-01T07:22:07;26.15;;;17.52;;
3299;SDS011;1662;49.310;8.134;2023-03-01T07:24:35;27.63;;;17.83;;
3299;SDS011;1662;49.310;8.134;2023-03-01T07:27:01;23.20;;;16.93;;
3299;SDS011;1662;49.310;8.134;2023-03-01T07:29:27;25.10;;;15.70;;
3299;SDS011;1662;49.310;8.134;2023-03-01T07:31:53;25.52;;;16.77;;
3299;SDS011;1662;49.310;8.134;2023-03-01T07:34:21;23.67;;;16.97;;
3299;SDS011;1662;49.310;8.134;2023-03-01T07:36:47;25.17;;;16.17;;
3299;SDS011;1662;49.310;8.134;2023-03-01T07:39:12;30.20;;;17.07;;
3299;SDS011;1662;49.310;8.134;2023-03-01T07:41:38;26.83;;;16.13;;
3299;SDS011;1662;49.310;8.134;2023-03-01T07:44:04;25.97;;;17.03;;
3299;SDS011;1662;49.310;8.134;2023-03-01T07:46:29;24.70;;;16.87;;
3299;SDS011;1662;49.310;8.134;2023-03-01T07:48:55;24.87;;;15.80;;
3299;SDS011;1662;49.310;8.134;2023-03-01T07:51:20;27.27;;;17.77;;
3299;SDS011;1662;49.310;8.134;2023-03-01T07:53:46;22.00;;;16.83;;
3299;SDS011;1662;49.310;8.134;2023-03-01T07:56:16;24.50;;;15.93;;
3299;SDS011;1662;49.310;8.134;2023-03-01T07:58:44;26.42;;;16.77;;
3299;SDS011;1662;49.310;8.134;2023-03-01T08:01:11;21.33;;;15.15;;
3299;SDS011;1662;49.310;8.134;2023-03-01T08:03:39;21.58;;;14.98;;
3299;SDS011;1662;49.310;8.134;2023-03-01T08:06:05;27.58;;;17.13;;
3299;SDS011;1662;49.310;8.134;2023-03-01T08:08:33;26.17;;;17.52;;
3299;SDS011;1662;49.310;8.134;2023-03-01T08:10:59;27.65;;;17.75;;
3299;SDS011;1662;49.310;8.134;2023-03-01T08:13:26;25.98;;;18.10;;
3299;SDS011;1662;49.310;8.134;2023-03-01T08:15:59;26.40;;;18.40;;
3299;SDS011;1662;49.310;8.134;2023-03-01T08:18:27;22.30;;;15.85;;
3299;SDS011;1662;49.310;8.134;2023-03-01T08:20:52;24.03;;;15.57;;
3299;SDS011;1662;49.310;8.134;2023-03-01T08:23:18;26.03;;;17.23;;
3299;SDS011;1662;49.310;8.134;2023-03-01T08:25:43;23.00;;;15.40;;
3299;SDS011;1662;49.310;8.134;2023-03-01T08:28:09;21.57;;;15.80;;
3299;SDS011;1662;49.310;8.134;2023-03-01T08:30:34;26.43;;;16.90;;
3299;SDS011;1662;49.310;8.134;2023-03-01T08:33:00;25.23;;;17.60;;
3299;SDS011;1662;49.310;8.134;2023-03-01T08:35:26;29.20;;;18.73;;
3299;SDS011;1662;49.310;8.134;2023-03-01T08:37:51;23.57;;;16.50;;
3299;SDS011;1662;49.310;8.134;2023-03-01T08:40:17;22.17;;;16.30;;
3299;SDS011;1662;49.310;8.134;2023-03-01T08:42:45;23.77;;;16.80;;
3299;SDS011;1662;49.310;8.134;2023-03-01T08:45:11;28.95;;;17.98;;
3299;SDS011;1662;49.310;8.134;2023-03-01T08:47:43;20.55;;;16.48;;
3299;SDS011;1662;49.310;8.134;2023-03-01T08:50:09;24.20;;;18.05;;
3299;SDS011;1662;49.310;8.134;2023-03-01T08:52:35;22.80;;;16.07;;
3299;SDS011;1662;49.310;8.134;2023-03-01T08:55:00;28.93;;;18.50;;
3299;SDS011;1662;49.310;8.134;2023-03-01T08:57:26;25.37;;;16.50;;
3299;SDS011;1662;49.310;8.134;2023-03-01T08:59:52;30.13;;;17.80;;
3299;SDS011;1662;49.310;8.134;2023-03-01T09:02:17;30.80;;;18.93;;
3299;SDS011;1662;49.310;8.134;2023-03-01T09:04:44;29.10;;;17.00;;
3299;SDS011;1662;49.310;8.134;2023-03-01T09:07:10;25.70;;;17.27;;
3299;SDS011;1662;49.310;8.134;2023-03-01T09:09:36;35.35;;;17.70;;
3299;SDS011;1662;49.310;8.134;2023-03-01T09:12:02;39.67;;;17.95;;
3299;SDS011;1662;49.310;8.134;2023-03-01T09:14:31;26.50;;;17.52;;
3299;SDS011;1662;49.310;8.134;2023-03-01T09:16:57;42.47;;;22.73;;
3299;SDS011;1662;49.310;8.134;2023-03-01T09:19:22;31.60;;;20.63;;
3299;SDS011;1662;49.310;8.134;2023-03-01T09:21:48;27.57;;;17.70;;
3299;SDS011;1662;49.310;8.134;2023-03-01T09:24:21;30.90;;;19.80;;
3299;SDS011;1662;49.310;8.134;2023-03-01T09:26:48;27.38;;;19.25;;
3299;SDS011;1662;49.310;8.134;2023-03-01T09:29:14;27.77;;;19.43;;
3299;SDS011;1662;49.310;8.134;2023-03-01T09:31:41;21.58;;;17.98;;
3299;SDS011;1662;49.310;8.134;2023-03-01T09:34:07;26.75;;;18.90;;
3299;SDS011;1662;49.310;8.134;2023-03-01T09:36:33;28.77;;;18.77;;
3299;SDS011;1662;49.310;8.134;2023-03-01T09:38:59;26.85;;;17.30;;
3299;SDS011;1662;49.310;8.134;2023-03-01T09:43:59;27.95;;;17.63;;
3299;SDS011;1662;49.310;8.134;2023-03-01T09:46:29;24.27;;;17.80;;
3299;SDS011;1662;49.310;8.134;2023-03-01T09:49:03;26.83;;;18.10;;
3299;SDS011;1662;49.310;8.134;2023-03-01T09:51:44;29.67;;;18.55;;
3299;SDS011;1662;49.310;8.134;2023-03-01T09:54:20;23.33;;;19.13;;
3299;SDS011;1662;49.310;8.134;2023-03-01T09:57:05;25.33;;;18.70;;
3299;SDS011;1662;49.310;8.134;2023-03-01T10:05:25;30.67;;;20.50;;
3299;SDS011;1662;49.310;8.134;2023-03-01T10:10:34;26.90;;;20.35;;
3299;SDS011;1662;49.310;8.134;2023-03-01T10:13:04;28.05;;;18.70;;
3299;SDS011;1662;49.310;8.134;2023-03-01T10:15:47;31.52;;;22.15;;
3299;SDS011;1662;49.310;8.134;2023-03-01T10:18:20;26.80;;;18.80;;
3299;SDS011;1662;49.310;8.134;2023-03-01T10:20:52;28.83;;;21.77;;
3299;SDS011;1662;49.310;8.134;2023-03-01T10:23:18;33.50;;;24.70;;
3299;SDS011;1662;49.310;8.134;2023-03-01T10:25:51;29.30;;;19.50;;
3299;SDS011;1662;49.310;8.134;2023-03-01T10:31:02;30.88;;;20.05;;
3299;SDS011;1662;49.310;8.134;2023-03-01T10:33:29;26.60;;;19.90;;
3299;SDS011;1662;49.310;8.134;2023-03-01T10:35:57;27.80;;;20.00;;
3299;SDS011;1662;49.310;8.134;2023-03-01T10:38:23;31.80;;;21.33;;
3299;SDS011;1662;49.310;8.134;2023-03-01T10:40:50;32.40;;;19.15;;
3299;SDS011;1662;49.310;8.134;2023-03-01T10:43:16;27.15;;;18.75;;
3299;SDS011;1662;49.310;8.134;2023-03-01T10:45:45;28.58;;;20.20;;
3299;SDS011;1662;49.310;8.134;2023-03-01T10:48:12;25.40;;;18.65;;
3299;SDS011;1662;49.310;8.134;2023-03-01T10:50:47;26.05;;;20.63;;
3299;SDS011;1662;49.310;8.134;2023-03-01T10:56:27;27.15;;;20.02;;
3299;SDS011;1662;49.310;8.134;2023-03-01T11:01:25;27.00;;;18.67;;
3299;SDS011;1662;49.310;8.134;2023-03-01T11:04:11;29.13;;;19.60;;
3299;SDS011;1662;49.310;8.134;2023-03-01T11:06:39;27.10;;;18.92;;
3299;SDS011;1662;49.310;8.134;2023-03-01T11:09:17;26.17;;;18.92;;
3299;SDS011;1662;49.310;8.134;2023-03-01T11:11:57;27.25;;;19.45;;
3299;SDS011;1662;49.310;8.134;2023-03-01T11:14:26;26.73;;;19.73;;
3299;SDS011;1662;49.310;8.134;2023-03-01T11:16:58;30.50;;;23.00;;
3299;SDS011;1662;49.310;8.134;2023-03-01T11:19:27;29.13;;;21.65;;
3299;SDS011;1662;49.310;8.134;2023-03-01T11:22:00;30.03;;;20.33;;
3299;SDS011;1662;49.310;8.134;2023-03-01T11:24:48;22.48;;;17.75;;
3299;SDS011;1662;49.310;8.134;2023-03-01T11:29:46;28.95;;;21.70;;
3299;SDS011;1662;49.310;8.134;2023-03-01T11:32:26;29.00;;;19.92;;
3299;SDS011;1662;49.310;8.134;2023-03-01T11:35:00;28.65;;;22.27;;
3299;SDS011;1662;49.310;8.134;2023-03-01T11:43:26;26.83;;;20.30;;
3299;SDS011;1662;49.310;8.134;2023-03-01T11:45:57;27.83;;;21.10;;
3299;SDS011;1662;49.310;8.134;2023-03-01T11:48:50;27.33;;;20.53;;
3299;SDS011;1662;49.310;8.134;2023-03-01T11:51:25;23.63;;;20.60;;
3299;SDS011;1662;49.310;8.134;2023-03-01T11:59:51;25.73;;;20.40;;
3299;SDS011;1662;49.310;8.134;2023-03-01T12:10:29;31.17;;;22.27;;
3299;SDS011;1662;49.310;8.134;2023-03-01T12:19:15;29.77;;;22.77;;
3299;SDS011;1662;49.310;8.134;2023-03-01T12:22:06;27.57;;;22.20;;
3299;SDS011;1662;49.310;8.134;2023-03-01T12:24:47;24.80;;;19.60;;
3299;SDS011;1662;49.310;8.134;2023-03-01T12:49:25;25.30;;;20.37;;
3299;SDS011;1662;49.310;8.134;2023-03-01T12:51:58;25.03;;;20.63;;
3299;SDS011;1662;49.310;8.134;2023-03-01T12:54:33;24.00;;;20.77;;
3299;SDS011;1662;49.310;8.134;2023-03-01T13:02:37;29.10;;;21.70;;
3299;SDS011;1662;49.310;8.134;2023-03-01T13:10:55;26.67;;;22.40;;
3299;SDS011;1662;49.310;8.134;2023-03-01T13:13:26;25.63;;;21.60;;
3299;SDS011;1662;49.310;8.134;2023-03-01T13:15:53;30.43;;;22.27;;
3299;SDS011;1662;49.310;8.134;2023-03-01T13:20:51;26.50;;;23.63;;
3299;SDS011;1662;49.310;8.134;2023-03-01T13:31:09;24.47;;;21.70;;
3299;SDS011;1662;49.310;8.134;2023-03-01T13:33:50;28.20;;;23.20;;
3299;SDS011;1662;49.310;8.134;2023-03-01T13:41:51;22.23;;;19.87;;
3299;SDS011;1662;49.310;8.134;2023-03-01T13:46:53;23.07;;;20.63;;
3299;SDS011;1662;49.310;8.134;2023-03-01T13:49:23;22.00;;;19.67;;
3299;SDS011;1662;49.310;8.134;2023-03-01T13:51:54;24.07;;;21.50;;
3299;SDS011;1662;49.310;8.134;2023-03-01T13:54:29;24.67;;;20.43;;
3299;SDS011;1662;49.310;8.134;2023-03-01T13:57:00;22.37;;;20.17;;
3299;SDS011;1662;49.310;8.134;2023-03-01T13:59:27;23.83;;;21.33;;
3299;SDS011;1662;49.310;8.134;2023-03-01T14:01:58;22.40;;;20.10;;
3299;SDS011;1662;49.310;8.134;2023-03-01T14:07:08;28.33;;;25.20;;
3299;SDS011;1662;49.310;8.134;2023-03-01T14:09:44;26.87;;;23.97;;
3299;SDS011;1662;49.310;8.134;2023-03-01T14:20:24;24.00;;;21.50;;
3299;SDS011;1662;49.310;8.134;2023-03-01T14:22:53;27.30;;;24.40;;
3299;SDS011;1662;49.310;8.134;2023-03-01T14:28:03;26.07;;;21.17;;
3299;SDS011;1662;49.310;8.134;2023-03-01T14:30:41;24.50;;;20.43;;
3299;SDS011;1662;49.310;8.134;2023-03-01T14:33:44;24.03;;;21.23;;
3299;SDS011;1662;49.310;8.134;2023-03-01T14:36:07;23.87;;;21.33;;
3299;SDS011;1662;49.310;8.134;2023-03-01T14:38:41;22.93;;;19.87;;
3299;SDS011;1662;49.310;8.134;2023-03-01T14:41:18;26.77;;;20.73;;
3299;SDS011;1662;49.310;8.134;2023-03-01T14:43:49;22.83;;;20.53;;
3299;SDS011;1662;49.310;8.134;2023-03-01T14:46:26;22.40;;;20.10;;
3299;SDS011;1662;49.310;8.134;2023-03-01T14:49:11;21.80;;;19.50;;
3299;SDS011;1662;49.310;8.134;2023-03-01T14:51:41;22.60;;;20.37;;
3299;SDS011;1662;49.310;8.134;2023-03-01T14:56:51;24.00;;;20.43;;
3299;SDS011;1662;49.310;8.134;2023-03-01T14:59:20;23.23;;;20.37;;
3299;SDS011;1662;49.310;8.134;2023-03-01T15:01:48;20.00;;;18.00;;
3299;SDS011;1662;49.310;8.134;2023-03-01T15:04:20;21.80;;;19.60;;
3299;SDS011;1662;49.310;8.134;2023-03-01T15:06:52;23.63;;;19.97;;
3299;SDS011;1662;49.310;8.134;2023-03-01T15:09:19;21.07;;;19.03;;
3299;SDS011;1662;49.310;8.134;2023-03-01T15:11:46;21.80;;;19.60;;
3299;SDS011;1662;49.310;8.134;2023-03-01T15:19:55;19.67;;;17.57;;
3299;SDS011;1662;49.310;8.134;2023-03-01T15:22:21;19.33;;;17.47;;
3299;SDS011;1662;49.310;8.134;2023-03-01T15:24:50;20.70;;;18.60;;
3299;SDS011;1662;49.310;8.134;2023-03-01T15:27:16;20.87;;;17.97;;
3299;SDS011;1662;49.310;8.134;2023-03-01T15:29:51;19.40;;;17.40;;
3299;SDS011;1662;49.310;8.134;2023-03-01T15:32:28;18.50;;;16.87;;
3299;SDS011;1662;49.310;8.134;2023-03-01T15:35:49;21.23;;;17.50;;
3299;SDS011;1662;49.310;8.134;2023-03-01T15:37:59;19.80;;;18.00;;
3299;SDS011;1662;49.310;8.134;2023-03-01T15:40:29;19.57;;;17.57;;
3299;SDS011;1662;49.310;8.134;2023-03-01T15:42:58;18.60;;;16.77;;
3299;SDS011;1662;49.310;8.134;2023-03-01T15:45:29;18.40;;;16.63;;
3299;SDS011;1662;49.310;8.134;2023-03-01T15:48:02;20.33;;;18.10;;
3299;SDS011;1662;49.310;8.134;2023-03-01T15:50:34;20.00;;;18.00;;
3299;SDS011;1662;49.310;8.134;2023-03-01T15:53:05;19.60;;;17.67;;
3299;SDS011;1662;49.310;8.134;2023-03-01T15:55:36;19.60;;;17.50;;
3299;SDS011;1662;49.310;8.134;2023-03-01T15:58:18;17.33;;;15.60;;
3299;SDS011;1662;49.310;8.134;2023-03-01T16:00:50;19.20;;;17.20;;
3299;SDS011;1662;49.310;8.134;2023-03-01T16:03:21;16.93;;;15.43;;
3299;SDS011;1662;49.310;8.134;2023-03-01T16:05:48;18.87;;;16.87;;
3299;SDS011;1662;49.310;8.134;2023-03-01T16:08:15;17.57;;;15.93;;
3299;SDS011;1662;49.310;8.134;2023-03-01T16:10:42;19.27;;;17.20;;
3299;SDS011;1662;49.310;8.134;2023-03-01T16:13:11;19.33;;;17.23;;
3299;SDS011;1662;49.310;8.134;2023-03-01T16:15:39;18.17;;;16.40;;
3299;SDS011;1662;49.310;8.134;2023-03-01T16:18:05;22.60;;;17.23;;
3299;SDS011;1662;49.310;8.134;2023-03-01T16:20:32;18.03;;;16.50;;
3299;SDS011;1662;49.310;8.134;2023-03-01T16:22:59;18.03;;;16.33;;
3299;SDS011;1662;49.310;8.134;2023-03-01T16:25:29;20.33;;;18.20;;
3299;SDS011;1662;49.310;8.134;2023-03-01T16:27:56;19.63;;;17.63;;
3299;SDS011;1662;49.310;8.134;2023-03-01T16:30:23;15.83;;;14.43;;
3299;SDS011;1662;49.310;8.134;2023-03-01T16:32:49;18.03;;;16.23;;
3299;SDS011;1662;49.310;8.134;2023-03-01T16:35:16;20.70;;;18.33;;
3299;SDS011;1662;49.310;8.134;2023-03-01T16:37:43;19.50;;;16.97;;
3299;SDS011;1662;49.310;8.134;2023-03-01T16:40:16;18.80;;;16.90;;
3299;SDS011;1662;49.310;8.134;2023-03-01T16:42:42;16.63;;;14.93;;
3299;SDS011;1662;49.310;8.134;2023-03-01T16:45:08;21.90;;;18.93;;
3299;SDS011;1662;49.310;8.134;2023-03-01T16:47:34;25.70;;;21.50;;
3299;SDS011;1662;49.310;8.134;2023-03-01T16:50:00;26.37;;;20.80;;
3299;SDS011;1662;49.310;8.134;2023-03-01T16:52:26;21.13;;;18.93;;
3299;SDS011;1662;49.310;8.134;2023-03-01T16:54:52;19.53;;;17.37;;
3299;SDS011;1662;49.310;8.134;2023-03-01T16:57:18;18.40;;;16.40;;
3299;SDS011;1662;49.310;8.134;2023-03-01T16:59:44;23.63;;;18.77;;
3299;SDS011;1662;49.310;8.134;2023-03-01T17:02:10;20.67;;;16.77;;
3299;SDS011;1662;49.310;8.134;2023-03-01T17:04:37;17.27;;;15.60;;
3299;SDS011;1662;49.310;8.134;2023-03-01T17:07:08;16.80;;;15.00;;
3299;SDS011;1662;49.310;8.134;2023-03-01T17:09:37;18.17;;;16.07;;
3299;SDS011;1662;49.310;8.134;2023-03-01T17:12:05;20.63;;;18.43;;
3299;SDS011;1662;49.310;8.134;2023-03-01T17:14:30;21.63;;;18.33;;
3299;SDS011;1662;49.310;8.134;2023-03-01T17:16:56;18.57;;;16.50;;